Terminal Aerodrome Forecast
Issued by NWS

Home | Current Version | Previous Version | Text Only | Print | Product List | Glossary On
Versions: 1 2 3 4 5 6 7 8 9 10 11 12 13 14 15 16 17 18 19 20 21
000
FTUS44 KCRP 171743
TAFALI
TAF
KALI 171743Z 1718/1818 16015G22KT P6SM BKN050
     FM180200 16012KT P6SM FEW020
     FM180500 18008KT P6SM OVC015
     FM181000 18006KT 2SM BR SCT005 OVC009
     FM181430 19008KT P6SM OVC015
     FM181600 22010KT P6SM BKN040=

USA.gov is the U.S. government's official web portal to all federal, state and local government web resources and services.